createdAt,value
2019-03-21T00:01:56.310Z,65.44
2019-03-21T00:04:27.188Z,65.53
2019-03-21T00:06:57.973Z,65.19
2019-03-21T00:09:28.809Z,67.90
2019-03-21T00:12:04.069Z,66.03
2019-03-21T00:14:53.935Z,66.30
2019-03-21T00:17:27.903Z,65.47
2019-03-21T00:19:58.867Z,65.66
2019-03-21T00:22:29.610Z,65.42
2019-03-21T00:25:00.386Z,65.23
2019-03-21T00:27:31.388Z,67.11
2019-03-21T00:30:02.241Z,68.29
2019-03-21T00:32:33.367Z,68.42
2019-03-21T00:35:04.180Z,68.00
2019-03-21T00:37:34.916Z,68.16
2019-03-21T00:40:06.685Z,67.75
2019-03-21T00:42:38.121Z,67.82
2019-03-21T00:45:10.157Z,68.28
2019-03-21T00:47:41.920Z,67.21
2019-03-21T00:50:14.661Z,67.14
2019-03-21T00:52:48.072Z,67.16
2019-03-21T00:55:18.880Z,67.55
2019-03-21T00:57:49.860Z,66.62
2019-03-21T01:00:27.195Z,66.57
2019-03-21T01:02:58.067Z,66.77
2019-03-21T01:05:30.217Z,67.05
2019-03-21T01:08:01.194Z,68.01
2019-03-21T01:10:32.168Z,67.57
2019-03-21T01:13:03.181Z,67.54
2019-03-21T01:15:36.005Z,66.84
2019-03-21T01:18:06.851Z,67.72
2019-03-21T01:20:37.644Z,67.35
2019-03-21T01:23:08.418Z,67.67
2019-03-21T01:25:42.512Z,68.40
2019-03-21T01:28:14.541Z,69.12
2019-03-21T01:30:45.426Z,69.20
2019-03-21T01:33:16.227Z,69.59
2019-03-21T01:35:47.026Z,68.74
2019-03-21T01:38:17.834Z,68.73
2019-03-21T01:40:49.451Z,68.66
2019-03-21T01:43:20.722Z,69.48
2019-03-21T01:45:51.587Z,69.20
2019-03-21T01:48:22.453Z,68.04
2019-03-21T01:50:53.282Z,67.31
2019-03-21T01:53:24.050Z,67.22
2019-03-21T01:55:54.829Z,66.77
2019-03-21T01:58:25.929Z,66.62
2019-03-21T02:00:56.779Z,66.21
2019-03-21T02:03:27.598Z,67.41
2019-03-21T02:05:58.381Z,67.01
2019-03-21T02:08:29.157Z,66.59
2019-03-21T02:10:59.969Z,65.82
2019-03-21T02:13:31.880Z,65.83
2019-03-21T02:16:03.108Z,66.01
2019-03-21T02:18:33.918Z,64.96
2019-03-21T02:21:04.773Z,66.08
2019-03-21T02:23:35.698Z,66.73
2019-03-21T02:26:06.503Z,65.67
2019-03-21T02:28:37.538Z,67.61
2019-03-21T02:31:08.478Z,67.90
2019-03-21T02:33:39.426Z,68.20
2019-03-21T02:36:10.228Z,69.23
2019-03-21T02:38:41.024Z,69.37
2019-03-21T02:41:12.082Z,69.44
2019-03-21T02:43:43.582Z,69.15
2019-03-21T02:46:14.966Z,68.86
2019-03-21T02:48:45.769Z,68.69
2019-03-21T02:51:16.617Z,68.56
2019-03-21T02:53:47.474Z,68.59
2019-03-21T02:56:19.750Z,69.02
2019-03-21T02:58:50.674Z,69.71
2019-03-21T03:01:21.915Z,68.78
2019-03-21T03:03:52.844Z,69.37
2019-03-21T03:06:23.659Z,68.70
2019-03-21T03:08:54.572Z,69.10
2019-03-21T03:11:25.468Z,67.30
2019-03-21T03:13:57.289Z,67.35
2019-03-21T03:16:28.120Z,67.83
2019-03-21T03:18:59.972Z,69.39
2019-03-21T03:21:30.840Z,69.81
2019-03-21T03:24:01.675Z,68.97
2019-03-21T03:26:32.438Z,69.43
2019-03-21T03:29:03.457Z,68.79
2019-03-21T03:31:36.986Z,69.14
2019-03-21T03:34:07.893Z,68.91
2019-03-21T03:36:38.690Z,69.79
2019-03-21T03:39:09.852Z,69.75
2019-03-21T03:41:40.710Z,70.64
2019-03-21T03:44:11.830Z,70.73
2019-03-21T03:46:42.567Z,72.16
2019-03-21T03:49:13.564Z,72.45
2019-03-21T03:51:44.620Z,72.11
2019-03-21T03:54:15.623Z,72.07
2019-03-21T03:56:48.042Z,72.23
2019-03-21T03:59:19.046Z,72.23
2019-03-21T04:01:49.784Z,72.57
2019-03-21T04:04:20.685Z,71.68
2019-03-21T04:06:51.509Z,71.17
2019-03-21T04:09:22.385Z,70.76
2019-03-21T04:11:53.526Z,70.89
2019-03-21T04:14:24.370Z,71.52
2019-03-21T04:16:55.110Z,70.70
2019-03-21T04:19:25.915Z,71.06
2019-03-21T04:21:58.710Z,71.31
2019-03-21T04:24:30.677Z,71.41
2019-03-21T04:27:01.443Z,71.63
2019-03-21T04:29:32.628Z,72.22
2019-03-21T04:32:07.531Z,71.89
2019-03-21T04:34:39.151Z,71.39
2019-03-21T04:37:09.955Z,71.63
2019-03-21T04:39:40.952Z,71.10
2019-03-21T04:42:11.838Z,70.90
2019-03-21T04:44:44.446Z,70.08
2019-03-21T04:47:15.431Z,70.07
2019-03-21T04:49:46.188Z,69.49
2019-03-21T04:52:17.049Z,68.96
2019-03-21T04:54:47.796Z,68.29
2019-03-21T04:57:18.641Z,68.39
2019-03-21T04:59:49.560Z,68.95
2019-03-21T05:02:20.442Z,70.15
2019-03-21T05:04:51.414Z,69.61
2019-03-21T05:07:22.238Z,68.93
2019-03-21T05:09:53.088Z,68.86
2019-03-21T05:12:23.882Z,68.44
2019-03-21T05:14:54.702Z,68.19
2019-03-21T05:17:25.437Z,67.95
2019-03-21T05:19:56.244Z,68.33
2019-03-21T05:22:29.751Z,67.89
2019-03-21T05:25:00.496Z,68.54
2019-03-21T05:27:31.231Z,68.96
2019-03-21T05:30:02.236Z,68.42
2019-03-21T05:32:33.013Z,68.12
2019-03-21T05:35:03.917Z,68.60
2019-03-21T05:37:35.119Z,69.52
2019-03-21T05:40:07.512Z,70.07
2019-03-21T05:42:38.395Z,69.63
2019-03-21T05:45:11.031Z,68.73
2019-03-21T05:47:41.809Z,67.80
2019-03-21T05:50:15.061Z,67.54
2019-03-21T05:52:46.115Z,67.86
2019-03-21T05:55:16.878Z,67.10
2019-03-21T05:57:47.674Z,67.90
2019-03-21T06:00:25.127Z,66.63
2019-03-21T06:02:56.094Z,66.87
2019-03-21T06:05:26.961Z,67.33
2019-03-21T06:08:21.036Z,67.14
2019-03-21T06:10:52.182Z,67.28
2019-03-21T06:13:25.707Z,66.61
2019-03-21T06:16:06.382Z,66.83
2019-03-21T06:19:13.610Z,66.58
2019-03-21T06:21:51.099Z,66.75
2019-03-21T06:24:48.966Z,67.19
2019-03-21T06:27:39.923Z,66.53
2019-03-21T06:30:11.827Z,67.09
2019-03-21T06:32:42.693Z,65.80
2019-03-21T06:35:22.404Z,66.56
2019-03-21T06:37:54.980Z,65.43
2019-03-21T06:40:30.443Z,65.63
2019-03-21T06:43:01.699Z,67.17
2019-03-21T06:45:34.115Z,65.39
2019-03-21T06:48:05.024Z,62.61
2019-03-21T06:50:35.881Z,59.92
2019-03-21T06:53:07.795Z,56.86
2019-03-21T06:55:38.623Z,56.06
2019-03-21T06:58:09.430Z,55.26
2019-03-21T07:00:40.203Z,52.90
2019-03-21T07:03:11.058Z,47.27
2019-03-21T07:05:41.895Z,35.81
2019-03-21T07:08:12.707Z,34.18
2019-03-21T07:10:43.534Z,33.00
2019-03-21T07:13:14.565Z,31.04
2019-03-21T07:15:45.726Z,30.62
2019-03-21T07:18:16.600Z,28.48
2019-03-21T07:20:47.462Z,28.56
2019-03-21T07:23:18.326Z,28.64
2019-03-21T07:25:51.350Z,28.63
2019-03-21T07:28:22.562Z,29.51
2019-03-21T07:30:53.365Z,29.23
2019-03-21T07:33:24.341Z,29.21
2019-03-21T07:35:55.178Z,28.05
2019-03-21T07:38:26.334Z,26.52
2019-03-21T07:40:57.429Z,27.42
2019-03-21T07:43:28.222Z,28.32
2019-03-21T07:45:59.696Z,27.30
2019-03-21T07:48:30.944Z,27.78
2019-03-21T07:51:01.746Z,26.40
2019-03-21T07:53:33.086Z,27.02
2019-03-21T07:56:05.326Z,28.26
2019-03-21T07:58:37.157Z,28.53
2019-03-21T08:01:07.966Z,28.94
2019-03-21T08:03:38.831Z,28.13
2019-03-21T08:06:09.719Z,27.37
2019-03-21T08:08:40.602Z,28.06
2019-03-21T08:11:11.362Z,26.58
2019-03-21T08:13:42.181Z,29.57
2019-03-21T08:16:13.442Z,29.67
2019-03-21T08:18:44.397Z,27.61
2019-03-21T08:21:15.244Z,31.47
2019-03-21T08:23:46.072Z,28.78
2019-03-21T08:26:17.023Z,28.31
2019-03-21T08:28:47.946Z,30.51
2019-03-21T08:31:19.903Z,28.88
2019-03-21T08:33:50.946Z,31.75
2019-03-21T08:36:21.769Z,30.91
2019-03-21T08:38:54.237Z,28.65
2019-03-21T08:41:25.152Z,30.41
2019-03-21T08:43:56.307Z,27.83
2019-03-21T08:46:27.599Z,29.55
2019-03-21T08:48:58.704Z,30.87
2019-03-21T08:51:30.834Z,31.97
2019-03-21T08:54:08.676Z,29.60
2019-03-21T08:56:39.541Z,31.57
2019-03-21T08:59:12.525Z,33.84
2019-03-21T09:01:43.358Z,32.95
2019-03-21T09:04:15.218Z,36.20
2019-03-21T09:06:45.983Z,33.26
2019-03-21T09:09:16.947Z,32.08
2019-03-21T09:11:47.753Z,34.08
2019-03-21T09:14:18.999Z,31.89
2019-03-21T09:16:49.874Z,32.06
2019-03-21T09:19:22.213Z,33.24
2019-03-21T09:21:53.139Z,32.24
2019-03-21T09:24:25.191Z,34.54
2019-03-21T09:26:56.021Z,35.72
2019-03-21T09:29:26.871Z,34.71
2019-03-21T09:31:58.357Z,32.80
2019-03-21T09:34:29.647Z,35.00
2019-03-21T09:37:03.954Z,34.73
2019-03-21T09:39:36.359Z,35.16
2019-03-21T09:42:07.182Z,36.38
2019-03-21T09:44:38.134Z,34.09
2019-03-21T09:47:09.515Z,32.01
2019-03-21T09:49:40.544Z,32.89
2019-03-21T09:52:13.340Z,32.41
2019-03-21T09:54:44.289Z,32.38
2019-03-21T09:57:15.051Z,32.02
2019-03-21T09:59:47.711Z,34.54
2019-03-21T10:02:18.887Z,36.80
2019-03-21T10:04:49.724Z,36.77
2019-03-21T10:07:20.511Z,35.39
2019-03-21T10:09:51.520Z,35.24
2019-03-21T10:12:22.336Z,36.59
2019-03-21T10:14:54.984Z,36.88
2019-03-21T10:17:26.115Z,35.59
2019-03-21T10:19:57.889Z,32.66
2019-03-21T10:22:28.667Z,34.18
2019-03-21T10:25:00.360Z,31.92
2019-03-21T10:27:34.682Z,33.64
2019-03-21T10:30:06.224Z,37.66
2019-03-21T10:32:37.001Z,37.27
2019-03-21T10:35:09.679Z,33.55
2019-03-21T10:37:40.410Z,36.20
2019-03-21T10:40:11.295Z,36.83
2019-03-21T10:42:42.089Z,36.88
2019-03-21T10:45:14.195Z,38.12
2019-03-21T10:47:45.542Z,37.79
2019-03-21T10:50:20.140Z,37.59
2019-03-21T10:52:50.916Z,40.27
2019-03-21T10:55:21.772Z,39.28
2019-03-21T10:57:52.546Z,36.19
2019-03-21T11:00:23.477Z,36.32
2019-03-21T11:02:55.222Z,36.84
2019-03-21T11:05:26.649Z,37.29
2019-03-21T11:07:57.365Z,35.35
2019-03-21T11:10:28.299Z,36.36
2019-03-21T11:12:59.477Z,35.51
2019-03-21T11:15:30.903Z,37.26
2019-03-21T11:18:01.695Z,36.69
2019-03-21T11:20:34.199Z,36.87
2019-03-21T11:23:08.124Z,38.53
2019-03-21T11:25:38.903Z,39.13
2019-03-21T11:28:09.902Z,37.06
2019-03-21T11:30:42.551Z,37.13
2019-03-21T11:33:13.390Z,37.99
2019-03-21T11:35:44.360Z,39.60
2019-03-21T11:38:15.187Z,36.95
2019-03-21T11:40:48.434Z,36.54
2019-03-21T11:43:20.202Z,37.05
2019-03-21T11:45:51.112Z,36.25
2019-03-21T11:48:23.506Z,37.08
2019-03-21T11:50:54.698Z,37.99
2019-03-21T11:53:25.618Z,37.37
2019-03-21T11:55:56.410Z,38.54
2019-03-21T11:58:27.156Z,38.05
2019-03-21T12:00:58.088Z,39.12
2019-03-21T12:03:31.186Z,39.72
2019-03-21T12:06:02.072Z,39.67
2019-03-21T12:08:33.932Z,39.09
2019-03-21T12:11:08.715Z,39.10
2019-03-21T12:13:39.452Z,39.72
2019-03-21T12:16:12.510Z,40.23
2019-03-21T12:18:43.371Z,41.33
2019-03-21T12:21:14.973Z,42.12
2019-03-21T12:23:45.833Z,40.92
2019-03-21T12:26:18.978Z,42.57
2019-03-21T12:28:49.813Z,42.09
2019-03-21T12:31:20.749Z,41.89
2019-03-21T12:33:51.505Z,42.66
2019-03-21T12:36:23.041Z,40.42
2019-03-21T12:38:56.626Z,41.82
2019-03-21T12:41:27.588Z,43.12
2019-03-21T12:44:00.758Z,40.97
2019-03-21T12:46:32.002Z,41.17
2019-03-21T12:49:05.427Z,42.87
2019-03-21T12:51:37.478Z,43.13
2019-03-21T12:54:08.379Z,41.13
2019-03-21T12:56:39.294Z,42.21
2019-03-21T12:59:10.335Z,42.67
2019-03-21T13:01:41.184Z,42.45
2019-03-21T13:04:12.881Z,42.65
2019-03-21T13:06:43.706Z,42.22
2019-03-21T13:09:14.593Z,41.95
2019-03-21T13:11:45.574Z,42.20
2019-03-21T13:14:20.062Z,42.15
2019-03-21T13:16:50.923Z,43.46
2019-03-21T13:19:22.808Z,43.25
2019-03-21T13:21:53.675Z,41.64
2019-03-21T13:24:24.613Z,43.35
2019-03-21T13:26:55.860Z,42.37
2019-03-21T13:29:28.660Z,43.92
2019-03-21T13:32:00.683Z,44.24
2019-03-21T13:34:32.216Z,45.06
2019-03-21T13:37:03.364Z,43.81
2019-03-21T13:39:34.585Z,42.98
2019-03-21T13:42:06.860Z,44.78
2019-03-21T13:44:39.683Z,43.98
2019-03-21T13:47:10.906Z,43.53
2019-03-21T13:49:43.446Z,44.53
2019-03-21T13:52:14.775Z,45.91
2019-03-21T13:54:45.882Z,44.77
2019-03-21T13:57:16.772Z,44.63
2019-03-21T13:59:47.619Z,44.27
2019-03-21T14:02:18.524Z,45.76
2019-03-21T14:04:55.600Z,45.58
2019-03-21T14:07:27.563Z,46.10
2019-03-21T14:09:59.835Z,44.68
2019-03-21T14:12:30.667Z,45.13
2019-03-21T14:15:04.108Z,44.38
2019-03-21T14:17:35.119Z,43.93
2019-03-21T14:20:06.449Z,45.11
2019-03-21T14:22:40.662Z,45.49
2019-03-21T14:25:13.988Z,44.71
2019-03-21T14:27:44.902Z,43.64
2019-03-21T14:30:20.161Z,45.47
2019-03-21T14:32:53.144Z,46.79
2019-03-21T14:35:26.519Z,47.13
2019-03-21T14:37:57.502Z,46.63
2019-03-21T14:40:28.364Z,46.42
2019-03-21T14:42:59.358Z,47.01
2019-03-21T14:45:30.210Z,47.66
2019-03-21T14:48:04.541Z,47.51
2019-03-21T14:50:35.883Z,46.84
2019-03-21T14:53:06.740Z,46.66
2019-03-21T14:55:47.003Z,47.56
2019-03-21T14:58:14.639Z,48.25
2019-03-21T15:00:45.568Z,48.52
2019-03-21T15:03:18.036Z,48.39
2019-03-21T15:05:48.858Z,47.36
2019-03-21T15:08:20.101Z,48.19
2019-03-21T15:10:51.127Z,49.31
2019-03-21T15:13:22.059Z,48.42
2019-03-21T15:15:54.477Z,48.07
2019-03-21T15:18:26.217Z,48.13
2019-03-21T15:20:57.082Z,49.05
2019-03-21T15:23:39.920Z,48.69
2019-03-21T15:26:00.744Z,48.46
2019-03-21T15:28:31.666Z,47.79
2019-03-21T15:31:02.751Z,48.03
2019-03-21T15:33:34.652Z,48.62
2019-03-21T15:36:05.408Z,50.18
2019-03-21T15:38:37.414Z,49.12
2019-03-21T15:41:10.412Z,48.61
2019-03-21T15:43:41.411Z,49.94
2019-03-21T15:46:12.392Z,50.11
2019-03-21T15:48:44.328Z,50.02
2019-03-21T15:51:15.916Z,50.13
2019-03-21T15:53:53.482Z,50.22
2019-03-21T15:56:19.598Z,50.58
2019-03-21T15:58:50.419Z,49.97
2019-03-21T16:01:22.112Z,51.67
2019-03-21T16:03:52.966Z,51.05
2019-03-21T16:06:23.910Z,51.53
2019-03-21T16:08:54.950Z,51.22
2019-03-21T16:11:25.788Z,51.08
2019-03-21T16:13:56.783Z,51.29
2019-03-21T16:16:28.439Z,52.05
2019-03-21T16:18:59.297Z,51.72
2019-03-21T16:21:30.255Z,51.17
2019-03-21T16:24:05.480Z,51.89
2019-03-21T16:26:36.528Z,50.71
2019-03-21T16:29:06.536Z,50.68
2019-03-21T16:31:40.434Z,50.59
2019-03-21T16:34:11.309Z,51.10
2019-03-21T16:36:42.235Z,52.52
2019-03-21T16:39:13.258Z,52.11
2019-03-21T16:41:44.074Z,51.43
2019-03-21T16:44:14.930Z,51.50
2019-03-21T16:46:45.747Z,51.89
2019-03-21T16:49:16.599Z,52.22
2019-03-21T16:51:47.718Z,54.12
2019-03-21T16:54:18.702Z,53.48
2019-03-21T16:56:49.658Z,54.04
2019-03-21T16:59:20.553Z,53.49
2019-03-21T17:01:51.327Z,53.43
2019-03-21T17:04:22.267Z,54.01
2019-03-21T17:06:53.414Z,55.52
2019-03-21T17:09:24.406Z,55.70
2019-03-21T17:11:55.234Z,56.29
2019-03-21T17:14:26.497Z,56.16
2019-03-21T17:16:57.337Z,56.09
2019-03-21T17:19:28.683Z,56.80
2019-03-21T17:21:59.523Z,57.01
2019-03-21T17:24:30.391Z,56.57
2019-03-21T17:27:02.410Z,56.98
2019-03-21T17:29:33.429Z,57.55
2019-03-21T17:32:04.250Z,57.72
2019-03-21T17:34:35.054Z,57.20
2019-03-21T17:37:05.971Z,57.30
2019-03-21T17:39:37.095Z,57.05
2019-03-21T17:42:07.838Z,56.64
2019-03-21T17:44:38.692Z,57.41
2019-03-21T17:47:09.457Z,57.65
2019-03-21T17:49:40.409Z,58.02
2019-03-21T17:52:11.589Z,57.78
2019-03-21T17:54:42.366Z,57.94
2019-03-21T17:57:13.202Z,58.10
2019-03-21T17:59:44.269Z,58.59
2019-03-21T18:02:15.043Z,58.68
2019-03-21T18:04:45.926Z,60.51
2019-03-21T18:07:16.787Z,60.79
2019-03-21T18:09:48.577Z,60.65
2019-03-21T18:12:20.498Z,61.23
2019-03-21T18:14:51.298Z,61.77
2019-03-21T18:17:22.034Z,60.77
2019-03-21T18:19:52.860Z,62.46
2019-03-21T18:22:24.696Z,63.97
2019-03-21T18:24:55.626Z,64.45
2019-03-21T18:27:26.401Z,65.02
2019-03-21T18:29:57.252Z,65.06
2019-03-21T18:32:28.257Z,64.94
2019-03-21T18:34:59.012Z,65.26
2019-03-21T18:37:29.766Z,63.67
2019-03-21T18:40:00.839Z,62.58
2019-03-21T18:42:31.681Z,63.29
2019-03-21T18:45:02.549Z,63.68
2019-03-21T18:47:33.283Z,65.21
2019-03-21T18:50:04.338Z,65.84
2019-03-21T18:52:35.974Z,65.68
2019-03-21T18:55:08.353Z,64.76
2019-03-21T18:57:39.210Z,65.28
2019-03-21T19:00:10.763Z,64.37
2019-03-21T19:02:41.495Z,64.57
2019-03-21T19:05:12.354Z,66.11
2019-03-21T19:07:43.209Z,67.96
2019-03-21T19:10:14.377Z,68.46
2019-03-21T19:12:45.309Z,68.74
2019-03-21T19:15:16.424Z,68.75
2019-03-21T19:17:47.234Z,68.56
2019-03-21T19:20:18.402Z,69.07
2019-03-21T19:22:49.270Z,69.00
2019-03-21T19:25:22.526Z,69.59
2019-03-21T19:27:53.301Z,69.83
2019-03-21T19:30:24.225Z,70.45
2019-03-21T19:32:55.063Z,70.71
2019-03-21T19:35:25.980Z,70.89
2019-03-21T19:37:56.727Z,71.10
2019-03-21T19:40:27.565Z,71.71
2019-03-21T19:42:58.346Z,72.24
2019-03-21T19:45:29.123Z,72.38
2019-03-21T19:47:59.859Z,72.04
2019-03-21T19:50:30.686Z,72.22
2019-03-21T19:53:01.889Z,72.10
2019-03-21T19:55:32.691Z,72.99
2019-03-21T19:58:03.523Z,72.67
2019-03-21T20:00:34.382Z,70.94
2019-03-21T20:03:05.277Z,71.84
2019-03-21T20:05:36.059Z,73.26
2019-03-21T20:08:06.804Z,72.09
2019-03-21T20:10:37.809Z,72.71
2019-03-21T20:13:08.595Z,72.46
2019-03-21T20:15:39.592Z,71.79
2019-03-21T20:18:12.390Z,72.43
2019-03-21T20:20:43.407Z,72.87
2019-03-21T20:23:14.216Z,73.13
2019-03-21T20:25:45.065Z,73.33
2019-03-21T20:28:16.145Z,73.50
2019-03-21T20:30:47.006Z,73.77
2019-03-21T20:33:17.783Z,74.03
2019-03-21T20:35:48.630Z,73.92
2019-03-21T20:38:19.379Z,73.33
2019-03-21T20:40:50.335Z,73.37
2019-03-21T20:43:21.192Z,73.74
2019-03-21T20:45:54.998Z,73.99
2019-03-21T20:48:30.676Z,74.74
2019-03-21T20:51:01.499Z,75.73
2019-03-21T20:53:32.409Z,76.17
2019-03-21T20:56:03.247Z,75.79
2019-03-21T20:58:34.495Z,75.84
2019-03-21T21:01:18.925Z,75.82
2019-03-21T21:03:54.183Z,75.82
2019-03-21T21:06:24.995Z,76.68
2019-03-21T21:08:55.763Z,76.84
2019-03-21T21:11:26.804Z,77.13
2019-03-21T21:13:57.634Z,77.37
2019-03-21T21:16:28.667Z,78.00
2019-03-21T21:18:59.409Z,79.01
2019-03-21T21:21:30.386Z,79.17
2019-03-21T21:24:01.142Z,78.56
2019-03-21T21:26:32.068Z,78.27
2019-03-21T21:29:03.244Z,77.94
2019-03-21T21:31:34.230Z,77.95
2019-03-21T21:34:12.184Z,78.62
2019-03-21T21:36:46.937Z,78.59
2019-03-21T21:42:27.546Z,79.06
2019-03-21T21:44:59.733Z,79.27
2019-03-21T21:47:30.557Z,78.87
2019-03-21T21:50:02.293Z,78.05
2019-03-21T21:52:41.914Z,78.07
2019-03-21T21:55:07.278Z,77.69
2019-03-21T21:57:39.240Z,78.42
2019-03-21T22:00:15.016Z,79.02
2019-03-21T22:02:46.132Z,79.74
2019-03-21T22:05:17.105Z,79.35
2019-03-21T22:07:47.973Z,78.88
2019-03-21T22:10:18.848Z,78.93
2019-03-21T22:12:52.250Z,80.53
2019-03-21T22:15:23.175Z,82.74
2019-03-21T22:17:53.986Z,83.27
2019-03-21T22:20:24.759Z,82.13
2019-03-21T22:22:56.739Z,81.34
2019-03-21T22:25:27.535Z,81.08
2019-03-21T22:27:58.575Z,82.04
2019-03-21T22:30:29.355Z,81.96
2019-03-21T22:33:00.237Z,81.57
2019-03-21T22:35:31.048Z,81.69
2019-03-21T22:38:01.943Z,81.18
2019-03-21T22:40:32.716Z,81.36
2019-03-21T22:43:03.610Z,81.31
2019-03-21T22:45:34.381Z,82.11
2019-03-21T22:48:05.279Z,81.60
2019-03-21T22:50:36.100Z,82.06
2019-03-21T22:53:06.979Z,81.99
2019-03-21T22:55:37.885Z,82.42
2019-03-21T22:58:08.813Z,82.93
2019-03-21T23:00:44.334Z,83.46
2019-03-21T23:03:15.224Z,84.62
2019-03-21T23:05:46.076Z,83.88
2019-03-21T23:08:16.863Z,83.04
2019-03-21T23:10:47.676Z,83.28
2019-03-21T23:13:18.578Z,83.86
2019-03-21T23:15:49.363Z,84.51
2019-03-21T23:18:20.189Z,84.07
2019-03-21T23:20:50.945Z,83.96
2019-03-21T23:23:21.790Z,83.98
2019-03-21T23:25:52.665Z,84.10
2019-03-21T23:28:23.839Z,84.98
2019-03-21T23:30:54.659Z,85.27
2019-03-21T23:33:25.620Z,85.25
2019-03-21T23:35:56.456Z,84.10
2019-03-21T23:38:27.352Z,84.00
2019-03-21T23:40:58.096Z,84.01
2019-03-21T23:43:30.199Z,84.12
2019-03-21T23:46:00.911Z,85.08
2019-03-21T23:48:31.694Z,85.15
2019-03-21T23:51:02.512Z,85.62
2019-03-21T23:53:33.317Z,86.29
2019-03-21T23:56:05.490Z,87.09
2019-03-21T23:58:36.301Z,87.27
